Time;durP1;ratioP1;P1;durP2;ratioP2;P2;SDS_P1;SDS_P2;PMS_P1;PMS_P2;Temp;Humidity;BMP_temperature;BMP_pressure;BME280_temperature;BME280_humidity;BME280_pressure;Samples;Min_cycle;Max_cycle;Signal;HPM_P1;HPM_P2
2023/08/17 00:01:34;;;;;;;2.22;1.00;;;;;;;;;;5114245;28;20519;-77
2023/08/17 00:04:00;;;;;;;3.28;1.50;;;;;;;;;;5114326;28;20118;-77
2023/08/17 00:06:25;;;;;;;1.83;1.25;;;;;;;;;;5114672;28;20020;-77
2023/08/17 00:08:51;;;;;;;2.80;1.02;;;;;;;;;;5096064;28;20038;-77
2023/08/17 00:11:16;;;;;;;3.60;1.20;;;;;;;;;;5114033;28;20076;-77
2023/08/17 00:13:42;;;;;;;1.63;1.23;;;;;;;;;;5114348;28;20389;-77
2023/08/17 00:16:07;;;;;;;3.03;1.23;;;;;;;;;;5095770;28;20101;-77
2023/08/17 00:18:32;;;;;;;1.30;1.10;;;;;;;;;;5113972;28;20035;-77
2023/08/17 00:20:58;;;;;;;2.78;1.25;;;;;;;;;;5095925;28;20472;-77
2023/08/17 00:23:23;;;;;;;1.60;1.10;;;;;;;;;;5114183;28;20539;-77
2023/08/17 00:25:49;;;;;;;2.92;1.30;;;;;;;;;;5095837;28;20418;-77
2023/08/17 00:28:14;;;;;;;3.35;1.27;;;;;;;;;;5095653;28;20032;-77
2023/08/17 00:30:40;;;;;;;1.58;1.05;;;;;;;;;;5095566;28;20023;-77
2023/08/17 00:33:05;;;;;;;2.65;1.00;;;;;;;;;;5095554;28;20393;-77
2023/08/17 00:35:32;;;;;;;1.92;1.10;;;;;;;;;;5078405;28;20446;-77
2023/08/17 00:37:58;;;;;;;2.35;1.40;;;;;;;;;;5095659;28;20027;-76
2023/08/17 00:40:23;;;;;;;3.22;1.20;;;;;;;;;;5113662;28;20032;-77
2023/08/17 00:42:49;;;;;;;2.85;1.27;;;;;;;;;;5095339;28;20088;-77
2023/08/17 00:45:15;;;;;;;1.88;1.40;;;;;;;;;;5095594;28;20024;-77
2023/08/17 00:47:41;;;;;;;2.67;1.10;;;;;;;;;;5095720;28;20072;-77
2023/08/17 00:50:07;;;;;;;1.27;1.10;;;;;;;;;;5095455;28;20032;-77
2023/08/17 00:52:33;;;;;;;0.98;0.88;;;;;;;;;;5095200;28;20042;-77
2023/08/17 00:55:00;;;;;;;1.88;1.10;;;;;;;;;;5095299;28;20123;-77
2023/08/17 00:57:26;;;;;;;1.65;1.05;;;;;;;;;;5095302;28;20173;-77
2023/08/17 00:59:51;;;;;;;1.08;0.82;;;;;;;;;;5095647;28;20474;-77
2023/08/17 01:02:17;;;;;;;2.20;1.05;;;;;;;;;;5078265;28;20091;-76
2023/08/17 01:04:42;;;;;;;4.85;1.13;;;;;;;;;;5095340;28;20109;-77
2023/08/17 01:07:08;;;;;;;1.15;0.90;;;;;;;;;;5114014;28;20423;-77
2023/08/17 01:09:33;;;;;;;2.20;1.00;;;;;;;;;;5095186;28;20077;-77
2023/08/17 01:12:16;;;;;;;4.70;1.20;;;;;;;;;;5095366;28;20543;-77
2023/08/17 01:15:11;;;;;;;1.45;1.10;;;;;;;;;;5095495;28;20527;-77
2023/08/17 01:17:48;;;;;;;3.78;1.10;;;;;;;;;;5074882;28;20031;-77
2023/08/17 01:20:15;;;;;;;2.22;1.20;;;;;;;;;;5113245;28;20072;-77
2023/08/17 01:22:42;;;;;;;3.60;1.30;;;;;;;;;;5079164;28;20122;-77
2023/08/17 01:25:08;;;;;;;1.05;0.93;;;;;;;;;;5113569;28;20077;-79
2023/08/17 01:27:42;;;;;;;1.35;1.00;;;;;;;;;;5078095;28;20027;-77
2023/08/17 01:30:08;;;;;;;2.25;1.10;;;;;;;;;;5078153;28;20030;-77
2023/08/17 01:32:41;;;;;;;2.50;1.08;;;;;;;;;;5113636;28;20111;-77
2023/08/17 01:35:20;;;;;;;0.77;0.70;;;;;;;;;;5117410;28;20103;-78
2023/08/17 01:37:46;;;;;;;2.35;1.20;;;;;;;;;;5117510;28;20282;-78
2023/08/17 01:40:13;;;;;;;2.53;1.10;;;;;;;;;;5116989;28;20529;-77
2023/08/17 01:42:39;;;;;;;1.30;1.00;;;;;;;;;;5098942;28;20020;-78
2023/08/17 01:45:05;;;;;;;3.47;1.13;;;;;;;;;;5098833;28;20031;-77
2023/08/17 01:47:30;;;;;;;2.72;1.20;;;;;;;;;;5116794;28;20027;-78
2023/08/17 01:49:59;;;;;;;3.53;1.00;;;;;;;;;;5116813;28;20030;-77
2023/08/17 01:52:26;;;;;;;2.97;1.15;;;;;;;;;;5117047;28;20032;-77
2023/08/17 01:54:51;;;;;;;1.48;1.02;;;;;;;;;;5098794;28;20019;-77
2023/08/17 01:57:17;;;;;;;2.60;1.08;;;;;;;;;;5081539;28;20039;-77
2023/08/17 01:59:42;;;;;;;3.58;1.10;;;;;;;;;;5116334;28;20031;-78
2023/08/17 02:02:08;;;;;;;1.98;1.25;;;;;;;;;;5098003;28;20466;-78
2023/08/17 02:04:33;;;;;;;2.45;1.00;;;;;;;;;;5081192;28;20042;-77
2023/08/17 02:06:59;;;;;;;5.50;1.45;;;;;;;;;;5098406;28;20023;-78
2023/08/17 02:09:24;;;;;;;1.80;1.00;;;;;;;;;;5116398;28;20338;-77
2023/08/17 02:11:49;;;;;;;1.02;0.90;;;;;;;;;;5098044;28;20084;-78
2023/08/17 02:14:15;;;;;;;1.20;1.10;;;;;;;;;;5080858;28;20028;-77
2023/08/17 02:16:40;;;;;;;2.65;1.13;;;;;;;;;;5097796;28;20107;-77
2023/08/17 02:19:05;;;;;;;3.00;1.00;;;;;;;;;;5115962;28;20097;-77
2023/08/17 02:21:31;;;;;;;2.38;1.17;;;;;;;;;;5116357;28;20110;-77
2023/08/17 02:23:56;;;;;;;2.75;1.50;;;;;;;;;;5116039;28;20420;-77
2023/08/17 02:26:22;;;;;;;2.88;1.30;;;;;;;;;;5097936;28;20028;-78
2023/08/17 02:28:47;;;;;;;3.05;1.10;;;;;;;;;;5097843;28;20047;-77
2023/08/17 02:31:12;;;;;;;2.47;1.08;;;;;;;;;;5097896;28;20508;-77
2023/08/17 02:33:38;;;;;;;1.73;1.17;;;;;;;;;;5098033;28;20083;-77
2023/08/17 02:36:04;;;;;;;2.13;1.13;;;;;;;;;;5115918;28;20028;-77
2023/08/17 02:38:29;;;;;;;2.05;1.00;;;;;;;;;;5098640;28;20370;-77
2023/08/17 02:40:55;;;;;;;1.30;0.98;;;;;;;;;;5097566;28;20031;-78
2023/08/17 02:43:20;;;;;;;1.95;0.98;;;;;;;;;;5116086;28;20027;-77
2023/08/17 02:45:45;;;;;;;2.78;1.45;;;;;;;;;;5096494;28;20029;-78
2023/08/17 02:48:11;;;;;;;2.78;1.10;;;;;;;;;;5115680;28;20055;-78
2023/08/17 02:50:36;;;;;;;2.30;1.10;;;;;;;;;;5116139;28;20032;-78
2023/08/17 02:53:02;;;;;;;1.98;0.93;;;;;;;;;;5080573;28;20032;-77
2023/08/17 02:55:28;;;;;;;2.80;1.20;;;;;;;;;;5097332;28;20474;-77
2023/08/17 02:57:53;;;;;;;2.95;1.05;;;;;;;;;;5097294;28;20031;-78
2023/08/17 03:00:18;;;;;;;2.17;1.20;;;;;;;;;;5080356;28;20028;-77
2023/08/17 03:02:44;;;;;;;3.80;1.20;;;;;;;;;;5079986;28;20490;-77
2023/08/17 03:05:09;;;;;;;2.58;1.20;;;;;;;;;;5115319;28;20063;-77
2023/08/17 03:07:34;;;;;;;2.50;1.10;;;;;;;;;;5115265;28;20032;-77
2023/08/17 03:10:00;;;;;;;3.55;1.20;;;;;;;;;;5096948;28;20024;-77
2023/08/17 03:12:25;;;;;;;1.92;1.23;;;;;;;;;;5115852;28;20023;-77
2023/08/17 03:14:50;;;;;;;2.72;1.27;;;;;;;;;;5097129;28;20031;-77
2023/08/17 03:17:16;;;;;;;0.98;0.90;;;;;;;;;;5115303;28;20038;-77
2023/08/17 03:19:41;;;;;;;1.40;1.00;;;;;;;;;;5097228;28;20053;-77
2023/08/17 03:22:07;;;;;;;2.10;1.10;;;;;;;;;;5079999;28;20062;-77
2023/08/17 03:24:32;;;;;;;3.40;1.35;;;;;;;;;;5096856;28;20437;-77
2023/08/17 03:26:57;;;;;;;2.28;1.17;;;;;;;;;;5096759;28;20027;-77
2023/08/17 03:29:23;;;;;;;2.30;1.10;;;;;;;;;;5096694;28;20031;-76
2023/08/17 03:31:49;;;;;;;2.15;1.05;;;;;;;;;;5115005;28;20503;-77
2023/08/17 03:34:15;;;;;;;2.53;1.27;;;;;;;;;;5096582;28;20035;-77
2023/08/17 03:36:41;;;;;;;2.78;1.10;;;;;;;;;;5096877;28;20073;-76
2023/08/17 03:39:06;;;;;;;2.85;1.15;;;;;;;;;;5097172;28;20522;-75
2023/08/17 03:41:32;;;;;;;1.75;0.98;;;;;;;;;;5115242;28;20110;-78
2023/08/17 03:43:57;;;;;;;2.20;1.13;;;;;;;;;;5114525;28;20039;-77
2023/08/17 03:46:25;;;;;;;1.30;0.93;;;;;;;;;;5114576;28;20032;-77
2023/08/17 03:48:50;;;;;;;1.50;1.10;;;;;;;;;;5096617;28;20027;-77
2023/08/17 03:51:16;;;;;;;2.08;1.13;;;;;;;;;;5114589;28;20359;-77
2023/08/17 03:53:41;;;;;;;2.17;1.13;;;;;;;;;;5114348;28;20063;-76
2023/08/17 03:56:06;;;;;;;1.70;1.08;;;;;;;;;;5096026;28;20035;-77
2023/08/17 03:58:34;;;;;;;1.75;1.00;;;;;;;;;;5114307;28;20028;-77
2023/08/17 04:01:00;;;;;;;3.22;1.20;;;;;;;;;;5114296;28;20108;-77
2023/08/17 04:03:25;;;;;;;1.52;1.10;;;;;;;;;;5114371;28;20031;-77
2023/08/17 04:05:50;;;;;;;3.42;0.93;;;;;;;;;;5079502;28;20019;-78
2023/08/17 04:08:16;;;;;;;2.15;1.15;;;;;;;;;;5114616;28;20030;-78
2023/08/17 04:10:41;;;;;;;6.22;1.17;;;;;;;;;;5096148;28;20087;-78
2023/08/17 04:13:06;;;;;;;2.40;0.90;;;;;;;;;;5114216;28;20027;-78
2023/08/17 04:15:32;;;;;;;1.67;1.10;;;;;;;;;;5114236;28;20177;-76
2023/08/17 04:17:57;;;;;;;1.27;1.13;;;;;;;;;;5095841;28;20027;-77
2023/08/17 04:20:23;;;;;;;1.77;1.20;;;;;;;;;;5114333;28;20035;-78
2023/08/17 04:22:48;;;;;;;1.27;1.00;;;;;;;;;;5096584;28;20031;-75
2023/08/17 04:25:13;;;;;;;9.75;1.00;;;;;;;;;;5096101;28;20051;-75
2023/08/17 04:27:39;;;;;;;2.42;0.90;;;;;;;;;;5079124;28;20058;-78
2023/08/17 04:30:05;;;;;;;1.90;1.13;;;;;;;;;;5095737;28;20371;-77
2023/08/17 04:32:31;;;;;;;4.43;1.60;;;;;;;;;;5095666;28;20081;-77
2023/08/17 04:34:56;;;;;;;7.32;2.10;;;;;;;;;;5113958;28;20028;-77
2023/08/17 04:37:21;;;;;;;2.17;1.52;;;;;;;;;;5078798;28;20040;-75
2023/08/17 04:39:48;;;;;;;3.85;2.13;;;;;;;;;;5114122;28;20035;-77
2023/08/17 04:42:14;;;;;;;5.32;1.70;;;;;;;;;;5095950;28;20157;-77
2023/08/17 04:44:39;;;;;;;9.60;2.42;;;;;;;;;;5113996;28;20475;-76
2023/08/17 04:47:05;;;;;;;6.57;2.65;;;;;;;;;;5113616;28;20424;-77
2023/08/17 04:49:30;;;;;;;7.00;2.10;;;;;;;;;;5113612;28;20032;-77
2023/08/17 04:51:56;;;;;;;8.40;2.53;;;;;;;;;;5095758;28;20116;-77
2023/08/17 04:54:21;;;;;;;5.75;2.30;;;;;;;;;;5114559;28;20030;-77
2023/08/17 04:56:46;;;;;;;9.32;2.40;;;;;;;;;;5095680;28;20479;-77
2023/08/17 04:59:12;;;;;;;5.28;1.88;;;;;;;;;;5114229;28;20108;-76
2023/08/17 05:01:38;;;;;;;3.67;2.40;;;;;;;;;;5114137;28;20047;-76
2023/08/17 05:04:04;;;;;;;6.93;2.50;;;;;;;;;;5113959;28;20439;-76
2023/08/17 05:06:29;;;;;;;4.85;2.08;;;;;;;;;;5113483;28;20035;-76
2023/08/17 05:08:55;;;;;;;2.88;1.40;;;;;;;;;;5116435;28;20028;-77
2023/08/17 05:11:21;;;;;;;5.80;2.28;;;;;;;;;;5082448;28;20063;-76
2023/08/17 05:13:46;;;;;;;9.05;3.28;;;;;;;;;;5117913;28;20066;-76
2023/08/17 05:16:12;;;;;;;14.18;3.38;;;;;;;;;;5099268;28;20110;-76
2023/08/17 05:18:37;;;;;;;15.35;3.65;;;;;;;;;;5117528;28;20028;-76
2023/08/17 05:21:02;;;;;;;12.23;3.38;;;;;;;;;;5117811;28;20431;-76
2023/08/17 05:23:28;;;;;;;14.82;4.18;;;;;;;;;;5099613;28;20031;-76
2023/08/17 05:25:53;;;;;;;9.00;3.28;;;;;;;;;;5099060;28;20020;-75
2023/08/17 05:28:19;;;;;;;6.38;2.85;;;;;;;;;;5082196;28;20104;-76
2023/08/17 05:30:44;;;;;;;6.75;2.35;;;;;;;;;;5099510;28;20133;-76
2023/08/17 05:33:09;;;;;;;9.13;3.03;;;;;;;;;;5117391;28;20028;-76
2023/08/17 05:35:35;;;;;;;9.23;2.50;;;;;;;;;;5098993;28;20462;-76
2023/08/17 05:38:01;;;;;;;9.68;2.72;;;;;;;;;;5117844;28;20027;-76
2023/08/17 05:40:28;;;;;;;7.35;2.17;;;;;;;;;;5117488;28;20055;-76
2023/08/17 05:42:54;;;;;;;9.35;2.38;;;;;;;;;;5099185;28;20111;-75
2023/08/17 05:45:19;;;;;;;7.07;2.40;;;;;;;;;;5100110;28;20529;-75
2023/08/17 05:47:45;;;;;;;6.63;2.42;;;;;;;;;;5100027;28;20027;-75
2023/08/17 05:50:10;;;;;;;4.22;1.80;;;;;;;;;;5118068;28;20034;-75
2023/08/17 05:52:36;;;;;;;4.85;2.15;;;;;;;;;;5117985;28;20024;-75
2023/08/17 05:55:01;;;;;;;5.75;2.13;;;;;;;;;;5117653;28;20031;-75
2023/08/17 05:57:27;;;;;;;5.72;1.90;;;;;;;;;;5117963;28;20470;-75
2023/08/17 05:59:52;;;;;;;5.20;1.60;;;;;;;;;;5117650;28;20084;-75
2023/08/17 06:02:18;;;;;;;4.90;1.80;;;;;;;;;;5117278;28;20047;-75
2023/08/17 06:04:43;;;;;;;4.47;1.83;;;;;;;;;;5117537;28;20039;-74
2023/08/17 06:07:08;;;;;;;3.47;1.80;;;;;;;;;;5082025;28;20035;-75
2023/08/17 06:09:34;;;;;;;3.88;1.38;;;;;;;;;;5098991;28;20466;-75
2023/08/17 06:11:59;;;;;;;3.92;1.73;;;;;;;;;;5117464;28;20085;-75
2023/08/17 06:14:24;;;;;;;3.08;1.92;;;;;;;;;;5117623;28;20031;-74
2023/08/17 06:16:50;;;;;;;3.08;1.40;;;;;;;;;;5082179;28;20043;-75
2023/08/17 06:19:15;;;;;;;1.75;1.17;;;;;;;;;;5098398;28;20032;-75
2023/08/17 06:21:41;;;;;;;2.35;1.27;;;;;;;;;;5098307;28;20062;-75
2023/08/17 06:24:06;;;;;;;2.55;1.20;;;;;;;;;;5116775;28;20480;-75
2023/08/17 06:26:32;;;;;;;2.70;1.20;;;;;;;;;;5116641;28;20034;-75
2023/08/17 06:28:57;;;;;;;2.95;1.30;;;;;;;;;;5116469;28;20039;-75
2023/08/17 06:31:27;;;;;;;4.32;1.70;;;;;;;;;;5098383;28;20127;-75
2023/08/17 06:33:52;;;;;;;1.75;1.10;;;;;;;;;;5081729;28;20050;-74
2023/08/17 06:36:18;;;;;;;1.48;1.02;;;;;;;;;;5098416;28;20471;-75
2023/08/17 06:38:43;;;;;;;3.45;1.30;;;;;;;;;;5116830;28;20036;-74
2023/08/17 06:41:09;;;;;;;2.85;1.42;;;;;;;;;;5097854;28;20036;-75
2023/08/17 06:43:34;;;;;;;2.03;1.10;;;;;;;;;;5116412;28;20031;-75
2023/08/17 06:46:00;;;;;;;3.17;1.42;;;;;;;;;;5115987;28;20032;-75
2023/08/17 06:48:26;;;;;;;4.07;1.58;;;;;;;;;;5115972;28;20470;-75
2023/08/17 06:50:51;;;;;;;2.65;1.40;;;;;;;;;;5116063;28;20039;-75
2023/08/17 06:53:16;;;;;;;2.78;1.67;;;;;;;;;;5116625;28;20497;-75
2023/08/17 06:55:42;;;;;;;2.95;1.50;;;;;;;;;;5098084;28;20038;-75
2023/08/17 06:58:07;;;;;;;8.68;1.40;;;;;;;;;;5097457;28;20019;-75
2023/08/17 07:00:35;;;;;;;2.58;1.20;;;;;;;;;;5115896;28;20027;-75
2023/08/17 07:03:00;;;;;;;1.95;1.20;;;;;;;;;;5093976;28;20515;-75
2023/08/17 07:05:26;;;;;;;3.58;1.25;;;;;;;;;;5095152;28;20056;-75
2023/08/17 07:07:52;;;;;;;4.57;1.40;;;;;;;;;;5094088;28;20411;-75
2023/08/17 07:10:19;;;;;;;3.97;1.48;;;;;;;;;;5094414;28;20432;-75
2023/08/17 07:12:45;;;;;;;3.55;1.20;;;;;;;;;;5095244;28;20115;-75
2023/08/17 07:15:10;;;;;;;1.10;0.93;;;;;;;;;;5095242;28;20115;-75
2023/08/17 07:17:36;;;;;;;2.03;1.20;;;;;;;;;;5093567;28;20055;-75
2023/08/17 07:20:03;;;;;;;3.13;1.30;;;;;;;;;;5094870;28;20027;-75
2023/08/17 07:22:29;;;;;;;3.22;1.30;;;;;;;;;;5093809;28;20077;-75
2023/08/17 07:24:54;;;;;;;6.00;1.60;;;;;;;;;;5095302;28;20024;-75
2023/08/17 07:27:20;;;;;;;2.95;1.30;;;;;;;;;;5094863;28;20016;-75
2023/08/17 07:29:45;;;;;;;2.75;1.50;;;;;;;;;;5095383;28;20028;-75
2023/08/17 07:32:10;;;;;;;2.22;1.35;;;;;;;;;;5094005;28;20032;-75
2023/08/17 07:34:36;;;;;;;3.53;1.70;;;;;;;;;;5093446;28;20039;-75
2023/08/17 07:37:03;;;;;;;1.77;1.10;;;;;;;;;;5093607;28;20028;-73
2023/08/17 07:39:28;;;;;;;2.45;1.23;;;;;;;;;;5094460;28;20525;-75
2023/08/17 07:41:54;;;;;;;3.85;1.13;;;;;;;;;;5094796;28;20111;-75
2023/08/17 07:44:19;;;;;;;2.45;1.27;;;;;;;;;;5093215;28;20457;-75
2023/08/17 07:46:44;;;;;;;1.75;1.23;;;;;;;;;;5093889;28;20032;-75
2023/08/17 07:49:10;;;;;;;1.92;1.08;;;;;;;;;;5094353;28;20024;-76
2023/08/17 07:51:35;;;;;;;2.72;1.20;;;;;;;;;;5093218;28;20036;-75
2023/08/17 07:54:00;;;;;;;4.72;1.27;;;;;;;;;;5093140;28;20032;-76
2023/08/17 07:56:26;;;;;;;3.80;1.50;;;;;;;;;;5093944;28;20122;-76
2023/08/17 07:58:54;;;;;;;2.60;0.90;;;;;;;;;;5092741;28;20123;-76
2023/08/17 08:01:19;;;;;;;3.40;1.08;;;;;;;;;;5097889;28;20046;-76
2023/08/17 08:03:45;;;;;;;2.85;1.40;;;;;;;;;;5114465;28;20039;-76
2023/08/17 08:06:10;;;;;;;6.57;1.10;;;;;;;;;;5096387;28;20027;-76
2023/08/17 08:08:36;;;;;;;5.35;1.10;;;;;;;;;;5114375;28;20049;-76
2023/08/17 08:11:01;;;;;;;2.28;1.15;;;;;;;;;;5114589;28;20030;-77
2023/08/17 08:13:27;;;;;;;3.80;0.90;;;;;;;;;;5096334;28;20036;-77
2023/08/17 08:15:52;;;;;;;6.72;1.30;;;;;;;;;;5095882;28;20027;-76
2023/08/17 08:18:18;;;;;;;3.15;1.20;;;;;;;;;;5114272;28;20421;-77
2023/08/17 08:20:44;;;;;;;4.78;1.30;;;;;;;;;;5114676;28;20038;-77
2023/08/17 08:23:09;;;;;;;5.15;1.40;;;;;;;;;;5114020;28;20550;-76
2023/08/17 08:25:35;;;;;;;3.70;1.30;;;;;;;;;;5096130;28;20033;-76
2023/08/17 08:28:00;;;;;;;4.28;1.30;;;;;;;;;;5114169;28;20111;-76
2023/08/17 08:30:26;;;;;;;2.72;1.20;;;;;;;;;;5062497;28;20027;-76
2023/08/17 08:32:51;;;;;;;3.20;1.17;;;;;;;;;;5114350;28;20028;-77
2023/08/17 08:35:17;;;;;;;2.10;0.95;;;;;;;;;;5096494;28;20176;-75
2023/08/17 08:37:42;;;;;;;2.53;1.30;;;;;;;;;;5114388;28;20039;-76
2023/08/17 08:40:12;;;;;;;4.18;1.02;;;;;;;;;;5096052;28;20497;-75
2023/08/17 08:42:38;;;;;;;10.23;1.58;;;;;;;;;;5096405;28;20023;-76
2023/08/17 08:45:04;;;;;;;4.57;1.00;;;;;;;;;;5114354;28;20486;-76
2023/08/17 08:47:31;;;;;;;3.97;1.17;;;;;;;;;;5096397;28;20024;-76
2023/08/17 08:50:03;;;;;;;3.05;1.20;;;;;;;;;;5114030;28;20518;-76
2023/08/17 08:52:33;;;;;;;2.10;1.00;;;;;;;;;;5079256;28;20429;-76
2023/08/17 08:54:58;;;;;;;4.95;1.20;;;;;;;;;;5114397;28;20074;-76
2023/08/17 08:57:24;;;;;;;4.78;1.52;;;;;;;;;;5078865;28;20093;-76
2023/08/17 08:59:49;;;;;;;8.10;1.55;;;;;;;;;;5075057;28;20062;-76
2023/08/17 09:02:16;;;;;;;3.72;1.40;;;;;;;;;;5121074;28;20043;-76
2023/08/17 09:04:44;;;;;;;4.10;1.50;;;;;;;;;;5098680;28;20023;-76
2023/08/17 09:07:11;;;;;;;4.72;1.20;;;;;;;;;;5098794;28;20072;-77
2023/08/17 09:09:37;;;;;;;3.65;1.58;;;;;;;;;;5134486;28;20031;-77
2023/08/17 09:12:04;;;;;;;4.28;1.30;;;;;;;;;;5098779;28;20034;-76
2023/08/17 09:14:29;;;;;;;5.80;1.30;;;;;;;;;;5098816;28;20118;-76
2023/08/17 09:16:58;;;;;;;1.58;1.08;;;;;;;;;;5116151;28;20106;-77
2023/08/17 09:19:24;;;;;;;4.00;1.92;;;;;;;;;;5115955;28;20123;-78
2023/08/17 09:21:50;;;;;;;3.00;1.40;;;;;;;;;;5099320;28;20039;-76
2023/08/17 09:24:15;;;;;;;2.92;1.58;;;;;;;;;;5116255;28;20032;-76
2023/08/17 09:26:40;;;;;;;3.28;1.48;;;;;;;;;;5115915;28;20023;-76
2023/08/17 09:29:20;;;;;;;7.15;2.53;;;;;;;;;;5134044;28;20027;-76
2023/08/17 09:31:48;;;;;;;7.32;2.13;;;;;;;;;;5115765;28;20055;-77
2023/08/17 09:34:14;;;;;;;7.40;2.67;;;;;;;;;;5134221;28;20023;-76
2023/08/17 09:36:40;;;;;;;9.75;2.30;;;;;;;;;;5116102;28;20023;-76
2023/08/17 09:39:05;;;;;;;7.10;2.03;;;;;;;;;;5098778;28;20088;-74
2023/08/17 09:41:38;;;;;;;6.18;2.03;;;;;;;;;;5116532;28;20058;-76
2023/08/17 09:44:04;;;;;;;6.38;1.70;;;;;;;;;;5134143;28;20130;-76
2023/08/17 09:46:29;;;;;;;3.97;1.70;;;;;;;;;;5135440;28;20107;-76
2023/08/17 09:48:55;;;;;;;6.75;2.70;;;;;;;;;;5117827;28;20059;-76
2023/08/17 09:51:20;;;;;;;2.50;1.70;;;;;;;;;;5117047;28;20426;-76
2023/08/17 09:53:51;;;;;;;4.18;1.60;;;;;;;;;;5118346;27;20442;-76
2023/08/17 09:56:17;;;;;;;5.95;2.30;;;;;;;;;;5120043;27;20030;-76
2023/08/17 09:58:42;;;;;;;3.42;1.70;;;;;;;;;;5120469;27;20469;-76
2023/08/17 10:01:08;;;;;;;6.10;1.92;;;;;;;;;;5138174;27;20030;-77
2023/08/17 10:03:34;;;;;;;3.50;1.80;;;;;;;;;;5119092;28;20031;-76
2023/08/17 10:06:09;;;;;;;3.60;1.95;;;;;;;;;;5100214;28;20080;-77
2023/08/17 10:08:41;;;;;;;2.38;1.50;;;;;;;;;;5100076;28;20051;-77
2023/08/17 10:11:08;;;;;;;4.30;1.95;;;;;;;;;;5117692;28;20042;-76
2023/08/17 10:13:35;;;;;;;3.22;1.85;;;;;;;;;;5082392;28;20039;-76
2023/08/17 10:16:26;;;;;;;4.43;2.00;;;;;;;;;;5099008;28;20075;-76
2023/08/17 10:19:05;;;;;;;4.78;1.80;;;;;;;;;;5121378;28;20059;-76
2023/08/17 10:21:40;;;;;;;6.10;2.17;;;;;;;;;;5099872;28;20077;-76
2023/08/17 10:24:06;;;;;;;5.40;2.00;;;;;;;;;;5098348;28;20027;-75
2023/08/17 10:26:31;;;;;;;5.88;2.38;;;;;;;;;;5099124;28;20023;-75
2023/08/17 10:28:58;;;;;;;4.30;1.90;;;;;;;;;;5098312;28;20106;-75
2023/08/17 10:31:25;;;;;;;3.50;2.03;;;;;;;;;;5116800;28;20031;-76
2023/08/17 10:33:51;;;;;;;5.95;2.10;;;;;;;;;;5081719;28;20023;-76
2023/08/17 10:36:17;;;;;;;5.15;1.90;;;;;;;;;;5098101;28;20493;-76
2023/08/17 10:38:42;;;;;;;4.00;2.10;;;;;;;;;;5081171;28;20066;-76
2023/08/17 10:41:14;;;;;;;4.38;1.88;;;;;;;;;;5097784;28;20055;-76
2023/08/17 10:43:59;;;;;;;2.47;1.80;;;;;;;;;;5102265;27;20092;-76
2023/08/17 10:46:35;;;;;;;6.53;2.10;;;;;;;;;;5105216;27;20028;-76
2023/08/17 10:49:04;;;;;;;3.17;2.00;;;;;;;;;;5110861;28;20019;-76
2023/08/17 10:51:29;;;;;;;5.13;1.95;;;;;;;;;;5108863;27;20031;-76
2023/08/17 10:53:58;;;;;;;4.13;2.20;;;;;;;;;;5097691;28;20494;-76
2023/08/17 10:56:27;;;;;;;4.53;1.90;;;;;;;;;;5117841;27;20035;-76
2023/08/17 10:58:52;;;;;;;5.22;2.33;;;;;;;;;;5101621;27;20480;-76
2023/08/17 11:01:35;;;;;;;4.82;2.00;;;;;;;;;;5117693;27;20073;-75
2023/08/17 11:04:15;;;;;;;4.03;1.90;;;;;;;;;;5111358;27;20508;-76
2023/08/17 11:06:42;;;;;;;3.00;1.55;;;;;;;;;;5092253;28;20018;-76
2023/08/17 11:09:08;;;;;;;3.47;1.92;;;;;;;;;;5112052;27;20474;-76
2023/08/17 11:11:36;;;;;;;4.40;2.05;;;;;;;;;;5101743;27;20031;-76
2023/08/17 11:14:02;;;;;;;3.70;1.95;;;;;;;;;;5135963;27;20034;-76
2023/08/17 11:16:27;;;;;;;8.32;1.90;;;;;;;;;;5116842;27;20393;-76
2023/08/17 11:18:53;;;;;;;4.30;1.60;;;;;;;;;;5117361;27;20027;-76
2023/08/17 11:21:19;;;;;;;2.47;1.40;;;;;;;;;;5117586;27;20031;-75
2023/08/17 11:23:44;;;;;;;3.95;2.00;;;;;;;;;;5101580;27;20121;-76
2023/08/17 11:26:10;;;;;;;4.20;1.98;;;;;;;;;;5101559;27;20108;-77
2023/08/17 11:28:37;;;;;;;3.65;1.70;;;;;;;;;;5101128;27;20035;-77
2023/08/17 11:31:05;;;;;;;3.22;1.60;;;;;;;;;;5137124;27;20031;-77
2023/08/17 11:33:31;;;;;;;3.25;1.73;;;;;;;;;;5137253;27;20023;-76
2023/08/17 11:36:02;;;;;;;2.15;1.50;;;;;;;;;;5117460;27;20100;-76
2023/08/17 11:38:33;;;;;;;6.47;1.67;;;;;;;;;;5117460;27;20071;-75
2023/08/17 11:40:59;;;;;;;2.60;1.50;;;;;;;;;;5116948;27;20482;-77
2023/08/17 11:43:25;;;;;;;2.63;1.70;;;;;;;;;;5099868;27;20079;-75
2023/08/17 11:45:51;;;;;;;3.28;1.95;;;;;;;;;;5135204;27;20023;-75
2023/08/17 11:48:19;;;;;;;2.28;1.52;;;;;;;;;;5116893;27;20036;-76
2023/08/17 11:50:45;;;;;;;6.00;1.88;;;;;;;;;;5135723;27;20043;-77
2023/08/17 11:53:10;;;;;;;3.72;1.85;;;;;;;;;;5117022;27;20038;-76
2023/08/17 11:55:36;;;;;;;4.93;1.75;;;;;;;;;;5116730;27;20389;-76
2023/08/17 11:58:02;;;;;;;3.38;1.75;;;;;;;;;;5099732;27;20084;-77
2023/08/17 12:00:34;;;;;;;3.50;2.00;;;;;;;;;;5116736;27;20027;-77
2023/08/17 12:03:00;;;;;;;4.03;1.70;;;;;;;;;;5134869;27;20517;-77
2023/08/17 12:05:27;;;;;;;4.53;1.63;;;;;;;;;;5135306;27;20031;-76
2023/08/17 12:07:53;;;;;;;4.70;1.80;;;;;;;;;;5116543;27;20030;-76
2023/08/17 12:10:19;;;;;;;2.42;1.30;;;;;;;;;;5116817;27;20389;-76
2023/08/17 12:12:46;;;;;;;2.88;1.60;;;;;;;;;;5135269;27;20038;-76
2023/08/17 12:15:12;;;;;;;2.50;1.67;;;;;;;;;;5116770;27;20027;-76
2023/08/17 12:17:43;;;;;;;2.53;1.55;;;;;;;;;;5134804;27;20027;-76
2023/08/17 12:20:15;;;;;;;2.97;1.70;;;;;;;;;;5135152;27;20055;-76
2023/08/17 12:22:40;;;;;;;3.42;1.60;;;;;;;;;;5117340;27;20031;-76
2023/08/17 12:25:07;;;;;;;1.77;1.30;;;;;;;;;;5134946;27;20076;-76
2023/08/17 12:27:32;;;;;;;3.17;1.70;;;;;;;;;;5134688;27;20087;-77
2023/08/17 12:29:57;;;;;;;2.58;1.50;;;;;;;;;;5135382;27;20416;-76
2023/08/17 12:32:23;;;;;;;3.13;1.50;;;;;;;;;;5082636;28;20071;-75
2023/08/17 12:34:49;;;;;;;4.50;1.50;;;;;;;;;;5134677;27;20031;-77
2023/08/17 12:37:20;;;;;;;3.38;1.70;;;;;;;;;;5135144;27;20055;-76
2023/08/17 12:39:46;;;;;;;3.08;1.65;;;;;;;;;;5116767;27;20114;-76
2023/08/17 12:42:11;;;;;;;2.22;1.40;;;;;;;;;;5134435;27;20453;-77
2023/08/17 12:44:37;;;;;;;2.58;1.52;;;;;;;;;;5115749;27;20055;-77
2023/08/17 12:47:02;;;;;;;2.65;1.30;;;;;;;;;;5135024;27;20023;-77
2023/08/17 12:49:27;;;;;;;2.35;1.40;;;;;;;;;;5116188;28;20117;-77
2023/08/17 12:51:53;;;;;;;2.08;1.20;;;;;;;;;;5134563;28;20035;-76
2023/08/17 12:54:18;;;;;;;1.40;1.30;;;;;;;;;;5099666;28;20107;-76
2023/08/17 12:56:44;;;;;;;2.50;1.60;;;;;;;;;;5116095;28;20466;-76
2023/08/17 12:59:09;;;;;;;3.55;1.60;;;;;;;;;;5115988;28;20046;-76
2023/08/17 13:01:35;;;;;;;2.40;1.60;;;;;;;;;;5112372;28;20490;-76
2023/08/17 13:04:00;;;;;;;4.53;1.65;;;;;;;;;;5113532;28;20106;-76
2023/08/17 13:06:25;;;;;;;3.28;1.67;;;;;;;;;;5112664;28;20462;-76
2023/08/17 13:08:51;;;;;;;2.72;1.50;;;;;;;;;;5095724;28;20543;-76
2023/08/17 13:11:16;;;;;;;2.80;1.45;;;;;;;;;;5112364;28;20032;-75
2023/08/17 13:13:42;;;;;;;2.20;1.48;;;;;;;;;;5113546;28;20335;-76
2023/08/17 13:16:07;;;;;;;2.33;1.42;;;;;;;;;;5112114;28;20097;-77
2023/08/17 13:18:32;;;;;;;1.58;1.30;;;;;;;;;;5113896;28;20039;-76
2023/08/17 13:20:58;;;;;;;2.47;1.45;;;;;;;;;;5095280;28;20035;-77
2023/08/17 13:23:23;;;;;;;2.28;1.40;;;;;;;;;;5112623;28;20035;-76
2023/08/17 13:25:49;;;;;;;2.50;1.50;;;;;;;;;;5113937;28;20510;-76
2023/08/17 13:28:14;;;;;;;2.33;1.30;;;;;;;;;;5113438;28;20027;-77
2023/08/17 13:30:39;;;;;;;2.70;1.50;;;;;;;;;;5117246;28;20023;-76
2023/08/17 13:33:08;;;;;;;1.92;1.38;;;;;;;;;;5116707;28;20107;-77
2023/08/17 13:35:33;;;;;;;2.45;1.30;;;;;;;;;;5117017;28;20391;-76
2023/08/17 13:37:59;;;;;;;2.63;1.50;;;;;;;;;;5115884;28;20034;-76
2023/08/17 13:40:25;;;;;;;2.10;1.50;;;;;;;;;;5117095;28;20051;-76
2023/08/17 13:42:50;;;;;;;3.78;1.58;;;;;;;;;;5115724;28;20031;-76
2023/08/17 13:45:16;;;;;;;2.55;1.67;;;;;;;;;;5117313;28;20115;-76
2023/08/17 13:47:41;;;;;;;3.20;1.50;;;;;;;;;;5116044;28;20475;-77
2023/08/17 13:50:07;;;;;;;4.97;1.80;;;;;;;;;;5117472;27;20023;-76
2023/08/17 13:52:33;;;;;;;4.25;1.90;;;;;;;;;;5115733;28;20027;-77
2023/08/17 13:54:58;;;;;;;3.38;1.90;;;;;;;;;;5117140;28;20038;-77
2023/08/17 13:57:23;;;;;;;3.13;1.50;;;;;;;;;;5117278;27;20168;-77
2023/08/17 13:59:49;;;;;;;2.72;1.63;;;;;;;;;;5116760;28;20020;-76
2023/08/17 14:02:14;;;;;;;3.38;1.52;;;;;;;;;;5117013;28;20054;-76
2023/08/17 14:04:40;;;;;;;2.22;1.58;;;;;;;;;;5115560;28;20052;-76
2023/08/17 14:07:05;;;;;;;1.98;1.48;;;;;;;;;;5116928;28;20115;-76
2023/08/17 14:09:31;;;;;;;2.75;1.70;;;;;;;;;;5098407;28;20031;-76
2023/08/17 14:11:56;;;;;;;1.58;1.48;;;;;;;;;;5116681;28;20093;-76
2023/08/17 14:14:21;;;;;;;1.85;1.40;;;;;;;;;;5098443;28;20443;-77
2023/08/17 14:16:47;;;;;;;5.22;1.75;;;;;;;;;;5115930;28;20030;-77
2023/08/17 14:19:12;;;;;;;6.18;1.70;;;;;;;;;;5117556;28;20391;-76
2023/08/17 14:21:37;;;;;;;5.28;1.63;;;;;;;;;;5116205;28;20028;-77
2023/08/17 14:24:04;;;;;;;4.13;1.65;;;;;;;;;;5115093;28;20039;-76
2023/08/17 14:26:29;;;;;;;4.65;1.40;;;;;;;;;;5098543;28;20057;-76
2023/08/17 14:28:54;;;;;;;3.05;1.73;;;;;;;;;;5115862;28;20168;-76
2023/08/17 14:31:20;;;;;;;1.98;1.40;;;;;;;;;;5116482;28;20028;-76
2023/08/17 14:33:47;;;;;;;2.33;1.80;;;;;;;;;;5098958;28;20039;-76
2023/08/17 14:36:14;;;;;;;5.60;1.50;;;;;;;;;;5100843;28;20028;-76
2023/08/17 14:38:39;;;;;;;2.95;1.73;;;;;;;;;;5095752;28;20032;-77